createdAt,value
2019-03-04T00:00:11.828Z,981.17
2019-03-04T00:01:11.816Z,981.09
2019-03-04T00:02:11.824Z,981.05
2019-03-04T00:03:11.796Z,980.95
2019-03-04T00:04:11.787Z,980.92
2019-03-04T00:05:11.775Z,980.85
2019-03-04T00:06:11.798Z,980.83
2019-03-04T00:07:11.750Z,980.84
2019-03-04T00:08:11.741Z,980.96
2019-03-04T00:09:11.752Z,980.88
2019-03-04T00:10:11.719Z,980.84
2019-03-04T00:11:11.708Z,980.92
2019-03-04T00:12:11.699Z,980.92
2019-03-04T00:13:11.688Z,980.93
2019-03-04T00:14:11.707Z,980.92
2019-03-04T00:15:11.668Z,980.93
2019-03-04T00:16:11.654Z,980.93
2019-03-04T00:17:11.647Z,980.95
2019-03-04T00:18:11.654Z,980.94
2019-03-04T00:19:11.623Z,980.95
2019-03-04T00:20:11.608Z,980.88
2019-03-04T00:21:11.595Z,980.91
2019-03-04T00:22:11.608Z,980.87
2019-03-04T00:23:11.576Z,980.85
2019-03-04T00:24:11.577Z,980.86
2019-03-04T00:25:11.557Z,980.76
2019-03-04T00:26:11.537Z,980.70
2019-03-04T00:27:11.530Z,980.76
2019-03-04T00:28:11.546Z,980.65
2019-03-04T00:29:11.524Z,980.60
2019-03-04T00:30:11.498Z,980.59
2019-03-04T00:31:11.485Z,980.66
2019-03-04T00:32:11.504Z,980.66
2019-03-04T00:33:11.462Z,980.68
2019-03-04T00:34:11.449Z,980.66
2019-03-04T00:35:11.441Z,980.69
2019-03-04T00:36:11.428Z,980.69
2019-03-04T00:37:11.440Z,980.77
2019-03-04T00:38:11.411Z,980.70
2019-03-04T00:39:11.417Z,980.72
2019-03-04T00:40:11.381Z,980.76
2019-03-04T00:41:11.372Z,980.72
2019-03-04T00:42:11.361Z,980.78
2019-03-04T00:43:11.356Z,980.78
2019-03-04T00:44:11.364Z,980.82
2019-03-04T00:45:11.331Z,980.84
2019-03-04T00:46:11.315Z,980.87
2019-03-04T00:47:11.306Z,980.99
2019-03-04T00:48:11.317Z,981.06
2019-03-04T00:49:11.289Z,981.11
2019-03-04T00:50:11.274Z,981.05
2019-03-04T00:51:11.263Z,980.90
2019-03-04T00:52:11.248Z,980.90
2019-03-04T00:53:11.264Z,980.87
2019-03-04T00:54:11.257Z,980.76
2019-03-04T00:55:11.216Z,980.62
2019-03-04T00:56:11.204Z,980.51
2019-03-04T00:57:11.192Z,980.45
2019-03-04T00:58:11.209Z,980.40
2019-03-04T00:59:11.175Z,980.32
2019-03-04T01:00:11.165Z,980.31
2019-03-04T01:01:11.149Z,980.36
2019-03-04T01:02:11.148Z,980.27
2019-03-04T01:03:11.155Z,980.33
2019-03-04T01:04:11.120Z,980.42
2019-03-04T01:05:11.106Z,980.43
2019-03-04T01:06:11.123Z,980.42
2019-03-04T01:07:11.083Z,980.37
2019-03-04T01:08:11.074Z,980.37
2019-03-04T01:09:11.085Z,980.48
2019-03-04T01:10:11.075Z,980.53
2019-03-04T01:11:11.045Z,980.53
2019-03-04T01:12:11.027Z,980.60
2019-03-04T01:13:11.042Z,980.67
2019-03-04T01:14:11.006Z,980.66
2019-03-04T01:15:10.993Z,980.62
2019-03-04T01:16:11.000Z,980.64
2019-03-04T01:17:10.991Z,980.53
2019-03-04T01:18:10.959Z,980.53
2019-03-04T01:19:10.974Z,980.49
2019-03-04T01:20:10.941Z,980.46
2019-03-04T01:21:10.927Z,980.45
2019-03-04T01:22:10.924Z,980.37
2019-03-04T01:23:10.932Z,980.38
2019-03-04T01:24:10.890Z,980.43
2019-03-04T01:25:10.880Z,980.40
2019-03-04T01:26:10.899Z,980.30
2019-03-04T01:27:10.865Z,980.30
2019-03-04T01:28:10.871Z,980.27
2019-03-04T01:29:10.837Z,980.23
2019-03-04T01:30:10.831Z,980.21
2019-03-04T01:31:10.816Z,980.16
2019-03-04T01:32:10.832Z,980.11
2019-03-04T01:33:10.793Z,980.14
2019-03-04T01:34:10.805Z,980.15
2019-03-04T01:35:10.778Z,980.03
2019-03-04T01:36:10.766Z,979.97
2019-03-04T01:37:10.752Z,979.99
2019-03-04T01:38:10.758Z,979.95
2019-03-04T01:39:10.725Z,979.92
2019-03-04T01:40:10.727Z,979.77
2019-03-04T01:41:10.705Z,979.85
2019-03-04T01:42:10.692Z,979.78
2019-03-04T01:43:10.699Z,979.78
2019-03-04T01:44:10.674Z,979.70
2019-03-04T01:45:10.660Z,979.75
2019-03-04T01:46:10.652Z,979.69
2019-03-04T01:47:10.634Z,979.63
2019-03-04T01:48:10.648Z,979.58
2019-03-04T01:49:10.614Z,979.52
2019-03-04T01:50:10.611Z,979.43
2019-03-04T01:51:10.634Z,979.42
2019-03-04T01:52:10.582Z,979.33
2019-03-04T01:53:10.573Z,979.22
2019-03-04T01:54:10.563Z,979.12
2019-03-04T01:55:10.546Z,979.05
2019-03-04T01:56:10.564Z,979.05
2019-03-04T01:57:10.536Z,979.02
2019-03-04T01:58:10.516Z,979.03
2019-03-04T01:59:10.528Z,979.04
2019-03-04T02:00:10.496Z,979.01
2019-03-04T02:01:10.486Z,978.94
2019-03-04T02:02:10.472Z,978.97
2019-03-04T02:03:10.492Z,978.85
2019-03-04T02:04:10.453Z,978.86
2019-03-04T02:05:10.437Z,978.86
2019-03-04T02:06:10.439Z,978.81
2019-03-04T02:07:10.417Z,978.76
2019-03-04T02:08:10.432Z,978.71
2019-03-04T02:09:10.401Z,978.74
2019-03-04T02:10:10.384Z,978.76
2019-03-04T02:11:10.403Z,978.75
2019-03-04T02:12:10.365Z,978.67
2019-03-04T02:13:10.349Z,978.71
2019-03-04T02:14:10.362Z,978.69
2019-03-04T02:15:10.346Z,978.60
2019-03-04T02:16:10.318Z,978.56
2019-03-04T02:17:10.321Z,978.50
2019-03-04T02:18:10.291Z,978.49
2019-03-04T02:19:10.322Z,978.49
2019-03-04T02:20:10.272Z,978.48
2019-03-04T02:21:10.267Z,978.45
2019-03-04T02:22:10.255Z,978.39
2019-03-04T02:23:10.235Z,978.37
2019-03-04T02:24:10.249Z,978.35
2019-03-04T02:25:10.222Z,978.32
2019-03-04T02:26:10.215Z,978.28
2019-03-04T02:27:10.219Z,978.20
2019-03-04T02:28:10.185Z,978.21
2019-03-04T02:29:10.170Z,978.22
2019-03-04T02:30:10.164Z,978.23
2019-03-04T02:31:10.179Z,978.26
2019-03-04T02:32:10.138Z,978.22
2019-03-04T02:33:10.132Z,978.13
2019-03-04T02:34:10.115Z,978.11
2019-03-04T02:35:10.106Z,978.03
2019-03-04T02:36:10.116Z,978.05
2019-03-04T02:37:10.086Z,978.06
2019-03-04T02:38:10.075Z,977.99
2019-03-04T02:39:10.089Z,978.03
2019-03-04T02:40:10.093Z,977.96
2019-03-04T02:41:10.039Z,977.90
2019-03-04T02:42:10.056Z,977.80
2019-03-04T02:43:10.021Z,977.83
2019-03-04T02:44:10.035Z,977.91
2019-03-04T02:45:09.991Z,977.81
2019-03-04T02:46:09.985Z,977.87
2019-03-04T02:47:10.006Z,977.86
2019-03-04T02:48:09.968Z,977.88
2019-03-04T02:49:09.948Z,977.76
2019-03-04T02:50:09.949Z,977.85
2019-03-04T02:51:09.950Z,977.81
2019-03-04T02:52:10.035Z,977.73
2019-03-04T02:53:09.911Z,977.68
2019-03-04T02:54:09.891Z,977.64
2019-03-04T02:55:09.880Z,977.49
2019-03-04T02:56:09.873Z,977.56
2019-03-04T02:57:09.890Z,977.63
2019-03-04T02:58:09.852Z,977.59
2019-03-04T02:59:09.846Z,977.63
2019-03-04T03:00:09.835Z,977.67
2019-03-04T03:01:09.866Z,977.59
2019-03-04T03:02:09.810Z,977.64
2019-03-04T03:03:09.790Z,977.66
2019-03-04T03:04:09.779Z,977.63
2019-03-04T03:05:09.770Z,977.67
2019-03-04T03:06:09.785Z,977.69
2019-03-04T03:07:09.754Z,977.69
2019-03-04T03:08:09.739Z,977.72
2019-03-04T03:09:09.726Z,977.66
2019-03-04T03:10:09.714Z,977.68
2019-03-04T03:11:09.725Z,977.72
2019-03-04T03:12:09.728Z,977.69
2019-03-04T03:13:09.685Z,977.59
2019-03-04T03:14:09.676Z,977.76
2019-03-04T03:15:09.660Z,977.80
2019-03-04T03:16:09.667Z,977.75
2019-03-04T03:17:09.656Z,977.75
2019-03-04T03:18:09.625Z,977.79
2019-03-04T03:19:09.621Z,977.85
2019-03-04T03:20:09.603Z,977.80
2019-03-04T03:21:09.635Z,977.78
2019-03-04T03:22:09.587Z,977.67
2019-03-04T03:23:09.575Z,977.59
2019-03-04T03:24:09.587Z,977.64
2019-03-04T03:25:09.557Z,977.49
2019-03-04T03:26:09.538Z,977.47
2019-03-04T03:27:09.534Z,977.43
2019-03-04T03:28:09.553Z,977.42
2019-03-04T03:29:09.510Z,977.41
2019-03-04T03:30:09.521Z,977.42
2019-03-04T03:31:09.502Z,977.38
2019-03-04T03:32:09.477Z,977.45
2019-03-04T03:33:09.496Z,977.50
2019-03-04T03:34:09.464Z,977.41
2019-03-04T03:35:09.441Z,977.23
2019-03-04T03:36:09.426Z,977.24
2019-03-04T03:37:09.419Z,977.18
2019-03-04T03:38:09.435Z,977.01
2019-03-04T03:39:09.388Z,977.18
2019-03-04T03:40:09.431Z,977.03
2019-03-04T03:41:09.369Z,976.99
2019-03-04T03:42:09.365Z,976.99
2019-03-04T03:43:09.378Z,976.98
2019-03-04T03:44:09.338Z,976.87
2019-03-04T03:45:09.321Z,977.00
2019-03-04T03:46:09.341Z,977.06
2019-03-04T03:47:09.298Z,976.96
2019-03-04T03:48:09.324Z,976.94
2019-03-04T03:49:09.279Z,976.91
2019-03-04T03:50:09.281Z,976.80
2019-03-04T03:51:09.255Z,976.73
2019-03-04T03:52:09.254Z,976.65
2019-03-04T03:53:09.262Z,976.57
2019-03-04T03:54:09.222Z,976.51
2019-03-04T03:55:09.217Z,976.49
2019-03-04T03:56:09.202Z,976.42
2019-03-04T03:57:09.213Z,976.40
2019-03-04T03:58:09.203Z,976.41
2019-03-04T03:59:09.189Z,976.21
2019-03-04T04:00:09.160Z,976.31
2019-03-04T04:01:09.176Z,976.18
2019-03-04T04:02:09.139Z,976.06
2019-03-04T04:03:09.164Z,976.12
2019-03-04T04:04:09.107Z,976.10
2019-03-04T04:05:09.125Z,976.24
2019-03-04T04:06:09.091Z,976.23
2019-03-04T04:07:09.078Z,976.34
2019-03-04T04:08:09.068Z,976.47
2019-03-04T04:09:09.129Z,976.63
2019-03-04T04:10:09.071Z,976.57
2019-03-04T04:11:09.035Z,976.50
2019-03-04T04:12:09.033Z,976.40
2019-03-04T04:13:09.010Z,976.42
2019-03-04T04:14:09.004Z,976.39
2019-03-04T04:15:09.022Z,976.39
2019-03-04T04:16:08.978Z,976.37
2019-03-04T04:17:08.970Z,976.38
2019-03-04T04:18:08.961Z,976.44
2019-03-04T04:19:08.951Z,976.34
2019-03-04T04:20:08.958Z,976.32
2019-03-04T04:21:08.923Z,976.31
2019-03-04T04:22:08.911Z,976.41
2019-03-04T04:23:08.927Z,976.28
2019-03-04T04:24:08.889Z,976.32
2019-03-04T04:25:08.881Z,976.29
2019-03-04T04:26:08.888Z,976.27
2019-03-04T04:27:08.854Z,976.30
2019-03-04T04:28:08.846Z,976.28
2019-03-04T04:29:08.849Z,976.23
2019-03-04T04:30:08.821Z,976.25
2019-03-04T04:31:08.835Z,976.18
2019-03-04T04:32:08.799Z,976.16
2019-03-04T04:33:08.821Z,976.21
2019-03-04T04:34:08.779Z,976.13
2019-03-04T04:35:08.765Z,976.12
2019-03-04T04:36:08.780Z,976.03
2019-03-04T04:37:08.753Z,976.19
2019-03-04T04:38:08.733Z,975.94
2019-03-04T04:39:08.751Z,975.96
2019-03-04T04:40:08.711Z,975.96
2019-03-04T04:41:08.698Z,976.00
2019-03-04T04:42:08.686Z,975.81
2019-03-04T04:43:08.672Z,975.82
2019-03-04T04:44:08.696Z,975.77
2019-03-04T04:45:08.654Z,975.85
2019-03-04T04:46:08.645Z,975.76
2019-03-04T04:47:08.629Z,975.70
2019-03-04T04:48:08.621Z,975.70
2019-03-04T04:49:08.637Z,975.69
2019-03-04T04:50:08.607Z,975.67
2019-03-04T04:51:08.591Z,975.52
2019-03-04T04:52:08.576Z,975.52
2019-03-04T04:53:08.564Z,975.47
2019-03-04T04:54:08.578Z,975.34
2019-03-04T04:55:08.543Z,975.46
2019-03-04T04:56:08.532Z,975.17
2019-03-04T04:57:08.517Z,975.33
2019-03-04T04:58:08.536Z,975.27
2019-03-04T04:59:08.532Z,975.25
2019-03-04T05:00:08.487Z,975.25
2019-03-04T05:01:08.476Z,975.19
2019-03-04T05:02:08.801Z,975.14
2019-03-04T05:03:08.735Z,975.20
2019-03-04T05:04:08.464Z,975.01
2019-03-04T05:05:08.434Z,974.94
2019-03-04T05:06:08.440Z,974.85
2019-03-04T05:07:08.406Z,974.95
2019-03-04T05:08:08.396Z,974.90
2019-03-04T05:09:08.409Z,974.95
2019-03-04T05:10:08.377Z,974.87
2019-03-04T05:11:08.389Z,974.83
2019-03-04T05:12:08.352Z,974.77
2019-03-04T05:13:08.339Z,974.83
2019-03-04T05:14:08.339Z,974.86
2019-03-04T05:15:08.323Z,974.92
2019-03-04T05:16:08.341Z,974.91
2019-03-04T05:17:08.294Z,975.10
2019-03-04T05:18:08.290Z,975.06
2019-03-04T05:19:08.272Z,975.00
2019-03-04T05:20:08.266Z,974.80
2019-03-04T05:21:08.283Z,974.79
2019-03-04T05:22:08.248Z,974.84
2019-03-04T05:23:08.261Z,974.83
2019-03-04T05:24:08.220Z,974.94
2019-03-04T05:25:08.208Z,974.75
2019-03-04T05:26:08.206Z,974.83
2019-03-04T05:27:08.182Z,974.89
2019-03-04T05:28:08.199Z,974.82
2019-03-04T05:29:08.160Z,974.83
2019-03-04T05:30:08.165Z,974.54
2019-03-04T05:31:08.140Z,974.62
2019-03-04T05:32:08.127Z,974.47
2019-03-04T05:33:08.120Z,974.50
2019-03-04T05:34:08.108Z,974.44
2019-03-04T05:35:08.122Z,974.26
2019-03-04T05:36:08.089Z,974.13
2019-03-04T05:37:08.071Z,974.11
2019-03-04T05:38:08.060Z,974.09
2019-03-04T05:39:08.077Z,974.11
2019-03-04T05:40:08.039Z,973.95
2019-03-04T05:41:08.027Z,973.99
2019-03-04T05:42:08.016Z,973.69
2019-03-04T05:43:08.030Z,973.55
2019-03-04T05:44:07.999Z,973.77
2019-03-04T05:45:07.984Z,973.75
2019-03-04T05:46:08.059Z,973.88
2019-03-04T05:47:07.965Z,973.92
2019-03-04T05:48:07.958Z,974.02
2019-03-04T05:49:07.939Z,974.03
2019-03-04T05:50:07.925Z,973.79
2019-03-04T05:51:07.947Z,974.00
2019-03-04T05:52:07.904Z,973.99
2019-03-04T05:53:07.899Z,973.93
2019-03-04T05:54:07.881Z,973.87
2019-03-04T05:55:08.901Z,973.66
2019-03-04T05:56:07.883Z,973.52
2019-03-04T05:57:07.857Z,973.39
2019-03-04T05:58:07.839Z,973.28
2019-03-04T05:59:07.829Z,973.32
2019-03-04T06:00:07.813Z,973.33
2019-03-04T06:01:07.842Z,973.45
2019-03-04T06:02:07.798Z,973.33
2019-03-04T06:03:07.783Z,973.55
2019-03-04T06:04:07.780Z,973.60
2019-03-04T06:05:07.759Z,973.44
2019-03-04T06:06:07.774Z,973.21
2019-03-04T06:07:07.738Z,973.45
2019-03-04T06:08:07.729Z,973.28
2019-03-04T06:09:07.718Z,973.20
2019-03-04T06:10:07.735Z,973.13
2019-03-04T06:11:07.696Z,972.92
2019-03-04T06:12:07.682Z,973.06
2019-03-04T06:13:07.679Z,973.07
2019-03-04T06:14:07.682Z,972.98
2019-03-04T06:15:07.676Z,972.86
2019-03-04T06:16:07.640Z,973.05
2019-03-04T06:17:07.625Z,972.92
2019-03-04T06:18:07.648Z,972.79
2019-03-04T06:19:07.607Z,972.91
2019-03-04T06:20:07.598Z,972.74
2019-03-04T06:21:07.625Z,972.73
2019-03-04T06:22:07.575Z,972.83
2019-03-04T06:23:07.563Z,972.81
2019-03-04T06:24:07.550Z,973.05
2019-03-04T06:25:07.607Z,972.92
2019-03-04T06:26:07.556Z,972.93
2019-03-04T06:27:07.519Z,972.94
2019-03-04T06:28:07.510Z,972.93
2019-03-04T06:29:07.494Z,972.85
2019-03-04T06:30:07.518Z,972.93
2019-03-04T06:31:07.484Z,972.90
2019-03-04T06:32:07.469Z,972.91
2019-03-04T06:33:07.452Z,972.89
2019-03-04T06:34:07.475Z,972.80
2019-03-04T06:35:07.437Z,972.76
2019-03-04T06:36:07.422Z,972.57
2019-03-04T06:37:07.406Z,972.44
2019-03-04T06:38:07.400Z,972.51
2019-03-04T06:39:07.408Z,972.48
2019-03-04T06:40:07.376Z,972.34
2019-03-04T06:41:07.362Z,972.42
2019-03-04T06:42:07.357Z,972.35
2019-03-04T06:43:07.343Z,972.33
2019-03-04T06:44:07.360Z,972.45
2019-03-04T06:45:07.326Z,972.41
2019-03-04T06:46:07.335Z,972.33
2019-03-04T06:47:07.299Z,972.44
2019-03-04T06:48:07.310Z,972.47
2019-03-04T06:49:07.273Z,972.60
2019-03-04T06:50:07.262Z,972.51
2019-03-04T06:51:07.255Z,972.49
2019-03-04T06:52:07.247Z,972.37
2019-03-04T06:53:07.256Z,972.16
2019-03-04T06:54:07.223Z,972.13
2019-03-04T06:55:07.211Z,972.12
2019-03-04T06:56:07.195Z,972.04
2019-03-04T06:57:07.205Z,971.86
2019-03-04T06:58:07.206Z,971.69
2019-03-04T06:59:07.164Z,971.72
2019-03-04T07:00:07.150Z,971.58
2019-03-04T07:01:07.146Z,971.59
2019-03-04T07:02:07.131Z,971.70
2019-03-04T07:03:07.145Z,971.72
2019-03-04T07:04:07.132Z,971.77
2019-03-04T07:05:07.101Z,971.69
2019-03-04T07:06:07.089Z,971.53
2019-03-04T07:07:07.100Z,971.51
2019-03-04T07:08:07.067Z,971.62
2019-03-04T07:09:07.058Z,971.47
2019-03-04T07:10:07.045Z,971.55
2019-03-04T07:11:07.035Z,971.70
2019-03-04T07:12:07.041Z,971.52
2019-03-04T07:13:07.015Z,971.61
2019-03-04T07:14:07.004Z,971.68
2019-03-04T07:15:07.017Z,971.96
2019-03-04T07:16:06.978Z,971.88
2019-03-04T07:17:06.976Z,971.94
2019-03-04T07:18:06.967Z,972.21
2019-03-04T07:19:06.949Z,972.00
2019-03-04T07:20:06.967Z,971.72
2019-03-04T07:21:06.945Z,971.62
2019-03-04T07:22:06.939Z,971.91
2019-03-04T07:23:06.899Z,972.19
2019-03-04T07:24:06.891Z,972.14
2019-03-04T07:25:06.886Z,972.04
2019-03-04T07:26:06.863Z,972.20
2019-03-04T07:27:06.880Z,972.00
2019-03-04T07:28:06.847Z,972.09
2019-03-04T07:29:06.840Z,971.80
2019-03-04T07:30:06.824Z,971.81
2019-03-04T07:31:06.813Z,971.98
2019-03-04T07:32:06.823Z,971.95
2019-03-04T07:33:06.785Z,972.08
2019-03-04T07:34:06.781Z,972.08
2019-03-04T07:35:06.789Z,972.33
2019-03-04T07:36:08.116Z,972.14
2019-03-04T07:37:06.746Z,971.96
2019-03-04T07:38:06.729Z,972.04
2019-03-04T07:39:06.720Z,971.83
2019-03-04T07:40:06.778Z,972.00
2019-03-04T07:41:06.698Z,971.87
2019-03-04T07:42:06.684Z,971.71
2019-03-04T07:43:06.677Z,971.95
2019-03-04T07:44:06.692Z,971.91
2019-03-04T07:45:06.657Z,971.85
2019-03-04T07:46:06.639Z,971.69
2019-03-04T07:47:06.644Z,971.85
2019-03-04T07:48:06.617Z,971.61
2019-03-04T07:49:06.646Z,971.35
2019-03-04T07:50:06.599Z,971.54
2019-03-04T07:51:06.584Z,971.40
2019-03-04T07:52:06.573Z,971.73
2019-03-04T07:53:06.562Z,971.93
2019-03-04T07:54:06.577Z,971.84
2019-03-04T07:55:06.542Z,971.65
2019-03-04T07:56:06.538Z,971.80
2019-03-04T07:57:06.540Z,971.32
2019-03-04T07:58:06.511Z,971.44
2019-03-04T07:59:06.497Z,971.47
2019-03-04T08:00:06.503Z,971.31
2019-03-04T08:01:06.473Z,971.55
2019-03-04T08:02:06.466Z,971.52
2019-03-04T08:03:06.477Z,971.61
2019-03-04T08:04:06.446Z,971.55
2019-03-04T08:05:06.431Z,971.33
2019-03-04T08:06:06.447Z,971.50
2019-03-04T08:07:06.406Z,971.30
2019-03-04T08:08:06.423Z,971.22
2019-03-04T08:09:06.388Z,971.64
2019-03-04T08:10:06.374Z,971.23
2019-03-04T08:11:06.392Z,971.41
2019-03-04T08:12:06.355Z,971.24
2019-03-04T08:13:06.349Z,971.34
2019-03-04T08:14:06.328Z,971.40
2019-03-04T08:15:06.344Z,971.23
2019-03-04T08:16:06.309Z,971.24
2019-03-04T08:17:06.327Z,971.32
2019-03-04T08:18:06.281Z,971.36
2019-03-04T08:19:06.306Z,971.39
2019-03-04T08:20:06.260Z,971.28
2019-03-04T08:21:06.277Z,971.56
2019-03-04T08:22:06.244Z,971.60
2019-03-04T08:23:06.233Z,971.32
2019-03-04T08:24:06.250Z,971.50
2019-03-04T08:25:06.203Z,971.48
2019-03-04T08:26:06.193Z,971.45
2019-03-04T08:27:06.191Z,971.62
2019-03-04T08:28:06.178Z,971.55
2019-03-04T08:29:06.188Z,971.45
2019-03-04T08:30:06.148Z,971.46
2019-03-04T08:31:06.152Z,971.46
2019-03-04T08:32:06.128Z,971.43
2019-03-04T08:33:06.167Z,971.58
2019-03-04T08:34:06.104Z,971.40
2019-03-04T08:35:06.097Z,971.44
2019-03-04T08:36:06.083Z,971.47
2019-03-04T08:37:06.074Z,971.37
2019-03-04T08:38:06.090Z,971.35
2019-03-04T08:39:06.051Z,971.31
2019-03-04T08:40:06.044Z,971.45
2019-03-04T08:41:06.028Z,971.39
2019-03-04T08:42:06.019Z,971.29
2019-03-04T08:43:06.027Z,971.26
2019-03-04T08:44:06.024Z,971.28
2019-03-04T08:45:05.982Z,971.29
2019-03-04T08:46:05.976Z,971.24
2019-03-04T08:47:05.960Z,971.16
2019-03-04T08:48:05.949Z,971.30
2019-03-04T08:49:05.971Z,971.33
2019-03-04T08:50:05.925Z,971.25
2019-03-04T08:51:05.940Z,971.31
2019-03-04T08:52:05.916Z,971.35
2019-03-04T08:53:05.925Z,971.25
2019-03-04T08:54:05.886Z,971.29
2019-03-04T08:55:05.877Z,971.26
2019-03-04T08:56:05.890Z,971.39
2019-03-04T08:57:05.856Z,971.25
2019-03-04T08:58:05.834Z,971.36
2019-03-04T08:59:05.855Z,971.44
2019-03-04T09:00:05.824Z,971.44
2019-03-04T09:01:05.802Z,971.51
2019-03-04T09:02:05.792Z,971.52
2019-03-04T09:03:05.808Z,971.78
2019-03-04T09:04:05.804Z,971.59
2019-03-04T09:05:05.758Z,971.70
2019-03-04T09:06:05.783Z,971.97
2019-03-04T09:07:05.738Z,972.10
2019-03-04T09:08:05.725Z,972.29
2019-03-04T09:09:05.741Z,972.31
2019-03-04T09:10:05.707Z,972.22
2019-03-04T09:11:05.721Z,972.68
2019-03-04T09:12:05.682Z,972.82
2019-03-04T09:13:05.671Z,973.08
2019-03-04T09:14:05.685Z,973.34
2019-03-04T09:15:05.647Z,973.18
2019-03-04T09:16:05.638Z,973.20
2019-03-04T09:17:05.631Z,973.17
2019-03-04T09:18:05.687Z,973.15
2019-03-04T09:19:05.635Z,973.05
2019-03-04T09:20:05.599Z,973.21
2019-03-04T09:21:05.585Z,973.24
2019-03-04T09:22:05.576Z,973.42
2019-03-04T09:23:05.557Z,973.38
2019-03-04T09:24:05.576Z,973.47
2019-03-04T09:25:05.538Z,973.46
2019-03-04T09:26:05.529Z,973.47
2019-03-04T09:27:05.516Z,973.29
2019-03-04T09:28:05.505Z,973.41
2019-03-04T09:29:05.516Z,973.35
2019-03-04T09:30:05.487Z,973.19
2019-03-04T09:31:05.504Z,972.92
2019-03-04T09:32:05.461Z,973.00
2019-03-04T09:33:05.445Z,972.96
2019-03-04T09:34:05.470Z,972.96
2019-03-04T09:35:05.429Z,973.07
2019-03-04T09:36:05.419Z,973.19
2019-03-04T09:37:05.403Z,973.10
2019-03-04T09:38:05.401Z,973.13
2019-03-04T09:39:05.414Z,973.18
2019-03-04T09:40:05.368Z,973.15
2019-03-04T09:41:05.364Z,973.09
2019-03-04T09:42:05.348Z,972.85
2019-03-04T09:43:05.340Z,972.78
2019-03-04T09:44:05.350Z,972.77
2019-03-04T09:45:05.345Z,972.77
2019-03-04T09:46:05.307Z,972.70
2019-03-04T09:47:05.298Z,972.77
2019-03-04T09:48:05.279Z,972.78
2019-03-04T09:49:05.272Z,972.76
2019-03-04T09:50:05.289Z,972.76
2019-03-04T09:51:05.279Z,972.70
2019-03-04T09:52:05.237Z,972.73
2019-03-04T09:53:05.230Z,972.73
2019-03-04T09:54:05.217Z,972.91
2019-03-04T09:55:05.226Z,972.96
2019-03-04T09:56:05.190Z,973.02
2019-03-04T09:57:05.206Z,972.96
2019-03-04T09:58:05.174Z,973.07
2019-03-04T09:59:05.163Z,972.93
2019-03-04T10:00:05.152Z,973.00
2019-03-04T10:01:05.144Z,973.01
2019-03-04T10:02:05.166Z,973.10
2019-03-04T10:03:05.113Z,973.08
2019-03-04T10:04:05.103Z,973.01
2019-03-04T10:05:05.098Z,973.04
2019-03-04T10:06:05.085Z,972.99
2019-03-04T10:07:05.101Z,973.06
2019-03-04T10:08:05.070Z,973.09
2019-03-04T10:09:05.047Z,972.93
2019-03-04T10:10:05.039Z,973.02
2019-03-04T10:11:05.026Z,973.20
2019-03-04T10:12:05.043Z,973.07
2019-03-04T10:13:05.009Z,973.17
2019-03-04T10:14:05.020Z,973.12
2019-03-04T10:15:08.331Z,973.14
2019-03-04T10:16:04.976Z,973.02
2019-03-04T10:17:04.957Z,973.00
2019-03-04T10:18:04.974Z,972.91
2019-03-04T10:19:04.941Z,972.90
2019-03-04T10:20:04.930Z,973.06
2019-03-04T10:21:04.924Z,973.00
2019-03-04T10:22:04.908Z,972.92
2019-03-04T10:23:04.920Z,972.90
2019-03-04T10:24:04.886Z,973.04
2019-03-04T10:25:04.895Z,972.95
2019-03-04T10:26:04.874Z,973.07
2019-03-04T10:27:04.853Z,973.07
2019-03-04T10:28:04.838Z,973.10
2019-03-04T10:29:04.824Z,973.15
2019-03-04T10:30:04.844Z,972.99
2019-03-04T10:31:04.836Z,973.19
2019-03-04T10:32:04.799Z,973.05
2019-03-04T10:33:04.789Z,973.01
2019-03-04T10:34:04.777Z,973.04
2019-03-04T10:35:04.787Z,973.15
2019-03-04T10:36:04.786Z,973.14
2019-03-04T10:37:04.744Z,973.20
2019-03-04T10:38:04.731Z,973.08
2019-03-04T10:39:04.714Z,973.13
2019-03-04T10:40:04.707Z,973.16
2019-03-04T10:41:04.727Z,973.14
2019-03-04T10:42:04.687Z,973.09
2019-03-04T10:43:04.668Z,973.08
2019-03-04T10:44:04.659Z,972.95
2019-03-04T10:45:04.671Z,973.09
2019-03-04T10:46:04.661Z,973.15
2019-03-04T10:47:04.631Z,973.06
2019-03-04T10:48:04.615Z,972.98
2019-03-04T10:49:04.609Z,973.02
2019-03-04T10:50:04.594Z,973.07
2019-03-04T10:51:04.615Z,973.06
2019-03-04T10:52:04.597Z,973.06
2019-03-04T10:53:04.565Z,973.13
2019-03-04T10:54:04.551Z,972.95
2019-03-04T10:55:04.561Z,973.20
2019-03-04T10:56:04.530Z,973.18
2019-03-04T10:57:04.516Z,973.28
2019-03-04T10:58:04.529Z,973.17
2019-03-04T10:59:04.490Z,973.02
2019-03-04T11:00:04.485Z,973.22
2019-03-04T11:01:04.472Z,973.01
2019-03-04T11:02:04.458Z,973.00
2019-03-04T11:03:04.475Z,972.93
2019-03-04T11:04:04.435Z,972.94
2019-03-04T11:05:04.437Z,972.80
2019-03-04T11:06:04.437Z,972.85
2019-03-04T11:07:04.403Z,972.86
2019-03-04T11:08:04.389Z,972.84
2019-03-04T11:09:04.386Z,972.92
2019-03-04T11:10:04.375Z,972.77
2019-03-04T11:11:04.374Z,972.82
2019-03-04T11:12:04.347Z,972.69
2019-03-04T11:13:04.371Z,972.82
2019-03-04T11:14:04.363Z,972.61
2019-03-04T11:15:04.311Z,972.79
2019-03-04T11:16:04.306Z,972.68
2019-03-04T11:17:04.299Z,972.49
2019-03-04T11:18:04.284Z,972.53
2019-03-04T11:19:04.308Z,972.51
2019-03-04T11:20:04.258Z,972.51
2019-03-04T11:21:04.247Z,972.67
2019-03-04T11:22:04.239Z,972.46
2019-03-04T11:23:04.231Z,972.40
2019-03-04T11:24:04.243Z,972.37
2019-03-04T11:25:04.233Z,972.36
2019-03-04T11:26:04.189Z,972.36
2019-03-04T11:27:04.180Z,972.41
2019-03-04T11:28:04.175Z,972.38
2019-03-04T11:29:04.187Z,972.34
2019-03-04T11:30:04.148Z,972.53
2019-03-04T11:31:04.135Z,972.28
2019-03-04T11:32:04.128Z,972.04
2019-03-04T11:33:04.112Z,972.22
2019-03-04T11:34:04.129Z,972.24
2019-03-04T11:35:04.092Z,972.21
2019-03-04T11:36:04.123Z,972.23
2019-03-04T11:37:04.069Z,972.17
2019-03-04T11:38:04.059Z,972.11
2019-03-04T11:39:04.073Z,972.45
2019-03-04T11:40:04.041Z,972.02
2019-03-04T11:41:04.052Z,972.19
2019-03-04T11:42:04.013Z,972.14
2019-03-04T11:43:04.005Z,972.16
2019-03-04T11:44:03.990Z,972.10
2019-03-04T11:45:04.004Z,972.22
2019-03-04T11:46:03.969Z,972.32
2019-03-04T11:47:03.984Z,972.17
2019-03-04T11:48:03.951Z,972.19
2019-03-04T11:49:03.938Z,972.22
2019-03-04T11:50:03.951Z,972.00
2019-03-04T11:51:03.914Z,972.12
2019-03-04T11:52:03.909Z,972.24
2019-03-04T11:53:03.917Z,972.31
2019-03-04T11:54:03.878Z,972.25
2019-03-04T11:55:03.873Z,972.46
2019-03-04T11:56:03.885Z,972.29
2019-03-04T11:57:03.845Z,972.34
2019-03-04T11:58:03.838Z,972.38
2019-03-04T11:59:03.857Z,972.75
2019-03-04T12:00:03.843Z,972.67
2019-03-04T12:01:03.804Z,972.65
2019-03-04T12:02:03.797Z,972.82
2019-03-04T12:03:03.798Z,972.58
2019-03-04T12:04:03.766Z,972.69
2019-03-04T12:05:03.759Z,972.74
2019-03-04T12:06:03.775Z,972.69
2019-03-04T12:07:03.771Z,972.56
2019-03-04T12:08:03.731Z,972.62
2019-03-04T12:09:03.714Z,972.69
2019-03-04T12:10:03.704Z,972.61
2019-03-04T12:11:03.694Z,972.57
2019-03-04T12:12:03.703Z,972.50
2019-03-04T12:13:03.671Z,972.78
2019-03-04T12:14:03.661Z,972.57
2019-03-04T12:15:03.650Z,972.63
2019-03-04T12:16:03.660Z,972.57
2019-03-04T12:17:03.621Z,972.61
2019-03-04T12:18:03.618Z,972.62
2019-03-04T12:19:03.625Z,972.48
2019-03-04T12:20:03.587Z,972.50
2019-03-04T12:21:03.590Z,972.46
2019-03-04T12:22:03.573Z,972.51
2019-03-04T12:23:03.573Z,972.45
2019-03-04T12:24:03.549Z,972.49
2019-03-04T12:25:03.534Z,972.29
2019-03-04T12:26:03.568Z,972.20
2019-03-04T12:27:03.510Z,972.24
2019-03-04T12:28:03.500Z,972.45